sensor_id;sensor_type;location;lat;lon;timestamp;P1;durP1;ratioP1;P2;durP2;ratioP2
64188;SDS011;50493;50.970;10.082;2023-07-16T00:02:13;4.47;;;3.03;;
64188;SDS011;50493;50.970;10.082;2023-07-16T00:04:38;4.53;;;2.92;;
64188;SDS011;50493;50.970;10.082;2023-07-16T00:07:04;3.97;;;2.80;;
64188;SDS011;50493;50.970;10.082;2023-07-16T00:09:30;5.35;;;3.10;;
64188;SDS011;50493;50.970;10.082;2023-07-16T00:11:56;3.53;;;2.95;;
64188;SDS011;50493;50.970;10.082;2023-07-16T00:14:21;3.35;;;2.72;;
64188;SDS011;50493;50.970;10.082;2023-07-16T00:16:46;4.05;;;2.97;;
64188;SDS011;50493;50.970;10.082;2023-07-16T00:19:14;4.03;;;2.83;;
64188;SDS011;50493;50.970;10.082;2023-07-16T00:21:39;4.40;;;3.03;;
64188;SDS011;50493;50.970;10.082;2023-07-16T00:24:05;3.45;;;2.63;;
64188;SDS011;50493;50.970;10.082;2023-07-16T00:26:30;3.85;;;2.83;;
64188;SDS011;50493;50.970;10.082;2023-07-16T00:28:56;4.30;;;2.80;;
64188;SDS011;50493;50.970;10.082;2023-07-16T00:31:21;3.92;;;2.97;;
64188;SDS011;50493;50.970;10.082;2023-07-16T00:33:46;3.55;;;2.50;;
64188;SDS011;50493;50.970;10.082;2023-07-16T00:36:13;3.65;;;2.80;;
64188;SDS011;50493;50.970;10.082;2023-07-16T00:38:39;4.93;;;3.00;;
64188;SDS011;50493;50.970;10.082;2023-07-16T00:41:05;4.63;;;2.92;;
64188;SDS011;50493;50.970;10.082;2023-07-16T00:43:30;3.38;;;2.80;;
64188;SDS011;50493;50.970;10.082;2023-07-16T00:45:56;3.85;;;2.95;;
64188;SDS011;50493;50.970;10.082;2023-07-16T00:48:21;5.57;;;3.08;;
64188;SDS011;50493;50.970;10.082;2023-07-16T00:50:47;3.33;;;2.70;;
64188;SDS011;50493;50.970;10.082;2023-07-16T00:53:14;3.35;;;2.67;;
64188;SDS011;50493;50.970;10.082;2023-07-16T00:55:39;4.00;;;3.13;;
64188;SDS011;50493;50.970;10.082;2023-07-16T00:58:05;4.68;;;3.40;;
64188;SDS011;50493;50.970;10.082;2023-07-16T01:00:32;3.03;;;2.63;;
64188;SDS011;50493;50.970;10.082;2023-07-16T01:02:57;3.60;;;2.70;;
64188;SDS011;50493;50.970;10.082;2023-07-16T01:05:23;5.43;;;3.53;;
64188;SDS011;50493;50.970;10.082;2023-07-16T01:07:53;3.83;;;3.10;;
64188;SDS011;50493;50.970;10.082;2023-07-16T01:10:24;3.78;;;3.05;;
64188;SDS011;50493;50.970;10.082;2023-07-16T01:12:51;3.60;;;2.90;;
64188;SDS011;50493;50.970;10.082;2023-07-16T01:15:18;4.68;;;2.67;;
64188;SDS011;50493;50.970;10.082;2023-07-16T01:17:44;4.80;;;3.22;;
64188;SDS011;50493;50.970;10.082;2023-07-16T01:20:10;3.88;;;2.72;;
64188;SDS011;50493;50.970;10.082;2023-07-16T01:22:50;4.00;;;2.65;;
64188;SDS011;50493;50.970;10.082;2023-07-16T01:25:34;5.07;;;3.50;;
64188;SDS011;50493;50.970;10.082;2023-07-16T01:31:05;4.57;;;3.13;;
64188;SDS011;50493;50.970;10.082;2023-07-16T01:33:33;3.50;;;2.72;;
64188;SDS011;50493;50.970;10.082;2023-07-16T01:35:59;4.28;;;2.88;;
64188;SDS011;50493;50.970;10.082;2023-07-16T01:38:25;3.85;;;2.92;;
64188;SDS011;50493;50.970;10.082;2023-07-16T01:40:51;3.70;;;2.17;;
64188;SDS011;50493;50.970;10.082;2023-07-16T01:43:16;5.22;;;2.78;;
64188;SDS011;50493;50.970;10.082;2023-07-16T01:45:41;3.72;;;2.60;;
64188;SDS011;50493;50.970;10.082;2023-07-16T01:48:12;3.50;;;2.53;;
64188;SDS011;50493;50.970;10.082;2023-07-16T01:50:41;7.07;;;2.92;;
64188;SDS011;50493;50.970;10.082;2023-07-16T01:53:07;4.72;;;3.08;;
64188;SDS011;50493;50.970;10.082;2023-07-16T01:55:32;3.60;;;2.65;;
64188;SDS011;50493;50.970;10.082;2023-07-16T01:57:58;4.28;;;2.90;;
64188;SDS011;50493;50.970;10.082;2023-07-16T02:00:23;4.45;;;3.00;;
64188;SDS011;50493;50.970;10.082;2023-07-16T02:02:49;3.63;;;2.70;;
64188;SDS011;50493;50.970;10.082;2023-07-16T02:05:16;4.22;;;2.88;;
64188;SDS011;50493;50.970;10.082;2023-07-16T02:07:41;3.88;;;2.45;;
64188;SDS011;50493;50.970;10.082;2023-07-16T02:10:07;4.28;;;2.88;;
64188;SDS011;50493;50.970;10.082;2023-07-16T02:12:33;3.80;;;2.72;;
64188;SDS011;50493;50.970;10.082;2023-07-16T02:14:58;3.55;;;2.70;;
64188;SDS011;50493;50.970;10.082;2023-07-16T02:17:24;4.03;;;2.75;;
64188;SDS011;50493;50.970;10.082;2023-07-16T02:19:49;5.53;;;2.70;;
64188;SDS011;50493;50.970;10.082;2023-07-16T02:22:16;5.20;;;2.50;;
64188;SDS011;50493;50.970;10.082;2023-07-16T02:24:41;5.82;;;2.80;;
64188;SDS011;50493;50.970;10.082;2023-07-16T02:27:07;3.80;;;2.78;;
64188;SDS011;50493;50.970;10.082;2023-07-16T02:29:32;5.45;;;2.63;;
64188;SDS011;50493;50.970;10.082;2023-07-16T02:31:58;3.50;;;2.60;;
64188;SDS011;50493;50.970;10.082;2023-07-16T02:34:23;3.58;;;2.50;;
64188;SDS011;50493;50.970;10.082;2023-07-16T02:36:49;5.45;;;2.50;;
64188;SDS011;50493;50.970;10.082;2023-07-16T02:39:15;4.22;;;2.60;;
64188;SDS011;50493;50.970;10.082;2023-07-16T02:41:41;4.32;;;2.35;;
64188;SDS011;50493;50.970;10.082;2023-07-16T02:44:06;3.75;;;2.30;;
64188;SDS011;50493;50.970;10.082;2023-07-16T02:46:34;3.58;;;2.30;;
64188;SDS011;50493;50.970;10.082;2023-07-16T02:48:59;3.83;;;2.40;;
64188;SDS011;50493;50.970;10.082;2023-07-16T02:51:25;2.92;;;2.25;;
64188;SDS011;50493;50.970;10.082;2023-07-16T02:53:50;3.70;;;2.50;;
64188;SDS011;50493;50.970;10.082;2023-07-16T02:56:17;3.13;;;1.85;;
64188;SDS011;50493;50.970;10.082;2023-07-16T02:58:42;3.17;;;2.05;;
64188;SDS011;50493;50.970;10.082;2023-07-16T03:01:08;3.28;;;2.40;;
64188;SDS011;50493;50.970;10.082;2023-07-16T03:03:33;2.20;;;1.80;;
64188;SDS011;50493;50.970;10.082;2023-07-16T03:05:58;3.15;;;2.28;;
64188;SDS011;50493;50.970;10.082;2023-07-16T03:08:24;3.25;;;1.95;;
64188;SDS011;50493;50.970;10.082;2023-07-16T03:10:54;3.30;;;2.20;;
64188;SDS011;50493;50.970;10.082;2023-07-16T03:13:21;3.40;;;1.90;;
64188;SDS011;50493;50.970;10.082;2023-07-16T03:15:47;2.33;;;1.85;;
64188;SDS011;50493;50.970;10.082;2023-07-16T03:18:12;3.22;;;2.05;;
64188;SDS011;50493;50.970;10.082;2023-07-16T03:20:37;3.55;;;2.03;;
64188;SDS011;50493;50.970;10.082;2023-07-16T03:23:03;3.17;;;1.80;;
64188;SDS011;50493;50.970;10.082;2023-07-16T03:25:28;3.70;;;2.42;;
64188;SDS011;50493;50.970;10.082;2023-07-16T03:27:54;3.42;;;2.00;;
64188;SDS011;50493;50.970;10.082;2023-07-16T03:30:20;3.60;;;2.00;;
64188;SDS011;50493;50.970;10.082;2023-07-16T03:32:46;3.65;;;2.20;;
64188;SDS011;50493;50.970;10.082;2023-07-16T03:35:11;2.97;;;2.00;;
64188;SDS011;50493;50.970;10.082;2023-07-16T03:37:37;3.22;;;2.10;;
64188;SDS011;50493;50.970;10.082;2023-07-16T03:40:12;4.20;;;2.10;;
64188;SDS011;50493;50.970;10.082;2023-07-16T03:45:04;4.37;;;2.13;;
64188;SDS011;50493;50.970;10.082;2023-07-16T03:47:31;3.25;;;1.92;;
64188;SDS011;50493;50.970;10.082;2023-07-16T03:49:56;4.30;;;1.90;;
64188;SDS011;50493;50.970;10.082;2023-07-16T03:52:22;3.05;;;1.80;;
64188;SDS011;50493;50.970;10.082;2023-07-16T03:54:48;3.13;;;1.90;;
64188;SDS011;50493;50.970;10.082;2023-07-16T03:57:13;5.13;;;1.95;;
64188;SDS011;50493;50.970;10.082;2023-07-16T03:59:39;5.50;;;2.22;;
64188;SDS011;50493;50.970;10.082;2023-07-16T04:02:04;4.25;;;2.10;;
64188;SDS011;50493;50.970;10.082;2023-07-16T04:04:31;3.00;;;1.88;;
64188;SDS011;50493;50.970;10.082;2023-07-16T04:06:56;5.40;;;2.00;;
64188;SDS011;50493;50.970;10.082;2023-07-16T04:09:22;3.25;;;1.90;;
64188;SDS011;50493;50.970;10.082;2023-07-16T04:11:47;3.28;;;1.90;;
64188;SDS011;50493;50.970;10.082;2023-07-16T04:14:13;4.60;;;1.88;;
64188;SDS011;50493;50.970;10.082;2023-07-16T04:16:38;3.35;;;1.80;;
64188;SDS011;50493;50.970;10.082;2023-07-16T04:19:03;3.95;;;2.00;;
64188;SDS011;50493;50.970;10.082;2023-07-16T04:21:31;2.83;;;1.67;;
64188;SDS011;50493;50.970;10.082;2023-07-16T04:23:56;3.90;;;1.80;;
64188;SDS011;50493;50.970;10.082;2023-07-16T04:26:22;3.47;;;1.80;;
64188;SDS011;50493;50.970;10.082;2023-07-16T04:28:47;3.88;;;1.73;;
64188;SDS011;50493;50.970;10.082;2023-07-16T04:31:13;2.75;;;1.83;;
64188;SDS011;50493;50.970;10.082;2023-07-16T04:33:38;3.55;;;1.77;;
64188;SDS011;50493;50.970;10.082;2023-07-16T04:36:03;7.47;;;2.35;;
64188;SDS011;50493;50.970;10.082;2023-07-16T04:38:30;2.35;;;1.80;;
64188;SDS011;50493;50.970;10.082;2023-07-16T04:40:56;3.33;;;1.90;;
64188;SDS011;50493;50.970;10.082;2023-07-16T04:43:21;3.35;;;1.90;;
64188;SDS011;50493;50.970;10.082;2023-07-16T04:45:47;4.80;;;2.00;;
64188;SDS011;50493;50.970;10.082;2023-07-16T04:48:12;2.58;;;1.90;;
64188;SDS011;50493;50.970;10.082;2023-07-16T04:50:38;3.60;;;1.83;;
64188;SDS011;50493;50.970;10.082;2023-07-16T04:53:03;4.97;;;2.08;;
64188;SDS011;50493;50.970;10.082;2023-07-16T04:55:34;3.63;;;1.90;;
64188;SDS011;50493;50.970;10.082;2023-07-16T04:58:00;3.38;;;1.83;;
64188;SDS011;50493;50.970;10.082;2023-07-16T05:00:25;3.25;;;2.08;;
64188;SDS011;50493;50.970;10.082;2023-07-16T05:02:51;3.70;;;1.80;;
64188;SDS011;50493;50.970;10.082;2023-07-16T05:05:16;2.92;;;1.92;;
64188;SDS011;50493;50.970;10.082;2023-07-16T05:07:41;3.78;;;1.95;;
64188;SDS011;50493;50.970;10.082;2023-07-16T05:10:07;2.88;;;1.63;;
64188;SDS011;50493;50.970;10.082;2023-07-16T05:12:34;2.72;;;1.98;;
64188;SDS011;50493;50.970;10.082;2023-07-16T05:15:00;3.22;;;1.88;;
64188;SDS011;50493;50.970;10.082;2023-07-16T05:17:25;3.10;;;1.70;;
64188;SDS011;50493;50.970;10.082;2023-07-16T05:19:51;2.72;;;1.77;;
64188;SDS011;50493;50.970;10.082;2023-07-16T05:22:16;3.30;;;1.70;;
64188;SDS011;50493;50.970;10.082;2023-07-16T05:24:41;3.88;;;2.10;;
64188;SDS011;50493;50.970;10.082;2023-07-16T05:27:07;4.05;;;1.83;;
64188;SDS011;50493;50.970;10.082;2023-07-16T05:29:34;6.05;;;2.10;;
64188;SDS011;50493;50.970;10.082;2023-07-16T05:31:59;3.22;;;1.77;;
64188;SDS011;50493;50.970;10.082;2023-07-16T05:34:24;3.67;;;1.83;;
64188;SDS011;50493;50.970;10.082;2023-07-16T05:36:52;3.28;;;1.73;;
64188;SDS011;50493;50.970;10.082;2023-07-16T05:39:18;5.50;;;2.45;;
64188;SDS011;50493;50.970;10.082;2023-07-16T05:41:44;4.95;;;1.85;;
64188;SDS011;50493;50.970;10.082;2023-07-16T05:44:09;2.60;;;1.80;;
64188;SDS011;50493;50.970;10.082;2023-07-16T05:46:36;3.20;;;1.90;;
64188;SDS011;50493;50.970;10.082;2023-07-16T05:49:02;3.70;;;1.80;;
64188;SDS011;50493;50.970;10.082;2023-07-16T05:51:27;2.55;;;1.70;;
64188;SDS011;50493;50.970;10.082;2023-07-16T05:53:52;4.38;;;1.60;;
64188;SDS011;50493;50.970;10.082;2023-07-16T05:56:18;2.38;;;1.52;;
64188;SDS011;50493;50.970;10.082;2023-07-16T05:58:43;3.15;;;1.88;;
64188;SDS011;50493;50.970;10.082;2023-07-16T06:01:09;2.28;;;1.52;;
64188;SDS011;50493;50.970;10.082;2023-07-16T06:03:35;3.47;;;1.80;;
64188;SDS011;50493;50.970;10.082;2023-07-16T06:06:01;3.03;;;1.65;;
64188;SDS011;50493;50.970;10.082;2023-07-16T06:08:26;4.68;;;1.85;;
64188;SDS011;50493;50.970;10.082;2023-07-16T06:10:51;3.08;;;1.65;;
64188;SDS011;50493;50.970;10.082;2023-07-16T06:19:05;3.92;;;1.80;;
64188;SDS011;50493;50.970;10.082;2023-07-16T06:21:31;3.97;;;1.90;;
64188;SDS011;50493;50.970;10.082;2023-07-16T06:23:56;3.03;;;1.58;;
64188;SDS011;50493;50.970;10.082;2023-07-16T06:26:21;1.92;;;1.58;;
64188;SDS011;50493;50.970;10.082;2023-07-16T06:28:47;3.50;;;1.90;;
64188;SDS011;50493;50.970;10.082;2023-07-16T06:31:15;3.15;;;1.75;;
64188;SDS011;50493;50.970;10.082;2023-07-16T06:33:41;3.33;;;1.70;;
64188;SDS011;50493;50.970;10.082;2023-07-16T06:36:08;2.72;;;1.70;;
64188;SDS011;50493;50.970;10.082;2023-07-16T06:38:33;5.03;;;1.92;;
64188;SDS011;50493;50.970;10.082;2023-07-16T06:40:59;4.20;;;1.80;;
64188;SDS011;50493;50.970;10.082;2023-07-16T06:43:24;4.68;;;1.90;;
64188;SDS011;50493;50.970;10.082;2023-07-16T06:45:50;3.58;;;1.70;;
64188;SDS011;50493;50.970;10.082;2023-07-16T06:48:16;2.70;;;1.70;;
64188;SDS011;50493;50.970;10.082;2023-07-16T06:50:41;5.85;;;1.80;;
64188;SDS011;50493;50.970;10.082;2023-07-16T06:53:08;4.78;;;1.77;;
64188;SDS011;50493;50.970;10.082;2023-07-16T06:55:33;3.40;;;1.77;;
64188;SDS011;50493;50.970;10.082;2023-07-16T06:57:59;3.15;;;1.75;;
64188;SDS011;50493;50.970;10.082;2023-07-16T07:00:25;3.20;;;1.75;;
64188;SDS011;50493;50.970;10.082;2023-07-16T07:02:50;2.45;;;1.50;;
64188;SDS011;50493;50.970;10.082;2023-07-16T07:05:16;2.85;;;1.80;;
64188;SDS011;50493;50.970;10.082;2023-07-16T07:07:41;3.30;;;1.70;;
64188;SDS011;50493;50.970;10.082;2023-07-16T07:10:10;3.20;;;1.70;;
64188;SDS011;50493;50.970;10.082;2023-07-16T07:12:36;3.03;;;1.80;;
64188;SDS011;50493;50.970;10.082;2023-07-16T07:15:02;3.53;;;1.77;;
64188;SDS011;50493;50.970;10.082;2023-07-16T07:17:28;3.13;;;1.73;;
64188;SDS011;50493;50.970;10.082;2023-07-16T07:19:54;3.58;;;2.00;;
64188;SDS011;50493;50.970;10.082;2023-07-16T07:22:19;3.53;;;1.80;;
64188;SDS011;50493;50.970;10.082;2023-07-16T07:24:44;7.10;;;1.75;;
64188;SDS011;50493;50.970;10.082;2023-07-16T07:27:11;3.72;;;1.73;;
64188;SDS011;50493;50.970;10.082;2023-07-16T07:29:37;3.85;;;1.70;;
64188;SDS011;50493;50.970;10.082;2023-07-16T07:32:02;5.15;;;1.67;;
64188;SDS011;50493;50.970;10.082;2023-07-16T07:34:28;3.97;;;1.80;;
64188;SDS011;50493;50.970;10.082;2023-07-16T07:36:53;6.43;;;1.80;;
64188;SDS011;50493;50.970;10.082;2023-07-16T07:39:19;3.33;;;2.00;;
64188;SDS011;50493;50.970;10.082;2023-07-16T07:41:44;3.28;;;1.73;;
64188;SDS011;50493;50.970;10.082;2023-07-16T07:44:11;3.00;;;1.40;;
64188;SDS011;50493;50.970;10.082;2023-07-16T07:46:36;3.72;;;1.80;;
64188;SDS011;50493;50.970;10.082;2023-07-16T07:49:02;3.10;;;1.45;;
64188;SDS011;50493;50.970;10.082;2023-07-16T07:51:27;5.50;;;1.85;;
64188;SDS011;50493;50.970;10.082;2023-07-16T07:53:52;3.35;;;1.73;;
64188;SDS011;50493;50.970;10.082;2023-07-16T07:56:18;3.00;;;1.77;;
64188;SDS011;50493;50.970;10.082;2023-07-16T07:58:43;2.60;;;1.60;;
64188;SDS011;50493;50.970;10.082;2023-07-16T08:01:10;2.28;;;1.50;;
64188;SDS011;50493;50.970;10.082;2023-07-16T08:03:36;5.05;;;1.75;;
64188;SDS011;50493;50.970;10.082;2023-07-16T08:06:01;2.92;;;1.83;;
64188;SDS011;50493;50.970;10.082;2023-07-16T08:08:27;3.63;;;1.55;;
64188;SDS011;50493;50.970;10.082;2023-07-16T08:10:53;2.80;;;1.65;;
64188;SDS011;50493;50.970;10.082;2023-07-16T08:13:18;4.95;;;1.70;;
64188;SDS011;50493;50.970;10.082;2023-07-16T08:15:44;3.92;;;1.60;;
64188;SDS011;50493;50.970;10.082;2023-07-16T08:18:10;4.10;;;1.70;;
64188;SDS011;50493;50.970;10.082;2023-07-16T08:20:36;3.47;;;1.80;;
64188;SDS011;50493;50.970;10.082;2023-07-16T08:23:02;2.90;;;1.60;;
64188;SDS011;50493;50.970;10.082;2023-07-16T08:25:27;2.90;;;1.60;;
64188;SDS011;50493;50.970;10.082;2023-07-16T08:27:53;2.90;;;1.80;;
64188;SDS011;50493;50.970;10.082;2023-07-16T08:30:18;2.85;;;1.70;;
64188;SDS011;50493;50.970;10.082;2023-07-16T08:32:43;4.32;;;1.50;;
64188;SDS011;50493;50.970;10.082;2023-07-16T08:35:10;5.25;;;1.73;;
64188;SDS011;50493;50.970;10.082;2023-07-16T08:37:41;5.03;;;2.05;;
64188;SDS011;50493;50.970;10.082;2023-07-16T08:40:07;4.65;;;1.92;;
64188;SDS011;50493;50.970;10.082;2023-07-16T08:42:35;2.95;;;1.70;;
64188;SDS011;50493;50.970;10.082;2023-07-16T08:45:01;4.82;;;2.00;;
64188;SDS011;50493;50.970;10.082;2023-07-16T08:47:27;4.47;;;2.10;;
64188;SDS011;50493;50.970;10.082;2023-07-16T08:49:53;4.65;;;1.90;;
64188;SDS011;50493;50.970;10.082;2023-07-16T08:52:22;3.97;;;2.10;;
64188;SDS011;50493;50.970;10.082;2023-07-16T08:54:48;4.00;;;2.00;;
64188;SDS011;50493;50.970;10.082;2023-07-16T08:57:13;3.08;;;1.77;;
64188;SDS011;50493;50.970;10.082;2023-07-16T08:59:39;3.58;;;2.05;;
64188;SDS011;50493;50.970;10.082;2023-07-16T09:02:05;4.22;;;2.00;;
64188;SDS011;50493;50.970;10.082;2023-07-16T09:04:32;4.72;;;2.00;;
64188;SDS011;50493;50.970;10.082;2023-07-16T09:06:57;3.60;;;2.00;;
64188;SDS011;50493;50.970;10.082;2023-07-16T09:09:24;2.80;;;1.60;;
64188;SDS011;50493;50.970;10.082;2023-07-16T09:11:50;4.65;;;2.20;;
64188;SDS011;50493;50.970;10.082;2023-07-16T09:14:16;5.03;;;2.10;;
64188;SDS011;50493;50.970;10.082;2023-07-16T09:16:42;3.33;;;2.00;;
64188;SDS011;50493;50.970;10.082;2023-07-16T09:19:09;6.10;;;2.13;;
64188;SDS011;50493;50.970;10.082;2023-07-16T09:21:36;5.18;;;2.08;;
64188;SDS011;50493;50.970;10.082;2023-07-16T09:24:05;4.43;;;1.98;;
64188;SDS011;50493;50.970;10.082;2023-07-16T09:26:33;5.65;;;2.13;;
64188;SDS011;50493;50.970;10.082;2023-07-16T09:31:30;3.65;;;1.90;;
64188;SDS011;50493;50.970;10.082;2023-07-16T09:33:56;2.83;;;1.95;;
64188;SDS011;50493;50.970;10.082;2023-07-16T09:36:24;2.92;;;2.00;;
64188;SDS011;50493;50.970;10.082;2023-07-16T09:38:50;5.72;;;2.28;;
64188;SDS011;50493;50.970;10.082;2023-07-16T09:41:17;4.53;;;2.28;;
64188;SDS011;50493;50.970;10.082;2023-07-16T09:43:44;5.88;;;2.00;;
64188;SDS011;50493;50.970;10.082;2023-07-16T09:46:10;7.43;;;2.25;;
64188;SDS011;50493;50.970;10.082;2023-07-16T09:48:36;5.22;;;1.88;;
64188;SDS011;50493;50.970;10.082;2023-07-16T09:51:01;6.03;;;2.10;;
64188;SDS011;50493;50.970;10.082;2023-07-16T09:53:27;5.40;;;1.95;;
64188;SDS011;50493;50.970;10.082;2023-07-16T09:55:57;7.63;;;2.20;;
64188;SDS011;50493;50.970;10.082;2023-07-16T09:58:24;3.95;;;2.00;;
64188;SDS011;50493;50.970;10.082;2023-07-16T10:00:53;4.05;;;2.20;;
64188;SDS011;50493;50.970;10.082;2023-07-16T10:03:19;3.67;;;1.90;;
64188;SDS011;50493;50.970;10.082;2023-07-16T10:05:45;4.22;;;2.40;;
64188;SDS011;50493;50.970;10.082;2023-07-16T10:08:16;4.50;;;2.30;;
64188;SDS011;50493;50.970;10.082;2023-07-16T10:10:43;4.07;;;2.38;;
64188;SDS011;50493;50.970;10.082;2023-07-16T10:13:13;3.80;;;2.22;;
64188;SDS011;50493;50.970;10.082;2023-07-16T10:15:39;2.78;;;2.17;;
64188;SDS011;50493;50.970;10.082;2023-07-16T10:18:23;4.65;;;2.28;;
64188;SDS011;50493;50.970;10.082;2023-07-16T10:20:50;3.75;;;2.35;;
64188;SDS011;50493;50.970;10.082;2023-07-16T10:23:17;6.55;;;2.28;;
64188;SDS011;50493;50.970;10.082;2023-07-16T10:25:57;4.65;;;2.30;;
64188;SDS011;50493;50.970;10.082;2023-07-16T10:28:23;4.10;;;2.00;;
64188;SDS011;50493;50.970;10.082;2023-07-16T10:30:48;4.90;;;2.50;;
64188;SDS011;50493;50.970;10.082;2023-07-16T10:33:14;4.05;;;2.10;;
64188;SDS011;50493;50.970;10.082;2023-07-16T10:35:42;3.00;;;2.08;;
64188;SDS011;50493;50.970;10.082;2023-07-16T10:38:07;5.10;;;2.13;;
64188;SDS011;50493;50.970;10.082;2023-07-16T10:40:33;6.78;;;2.35;;
64188;SDS011;50493;50.970;10.082;2023-07-16T10:43:05;5.25;;;1.92;;
64188;SDS011;50493;50.970;10.082;2023-07-16T10:45:31;3.90;;;2.20;;
64188;SDS011;50493;50.970;10.082;2023-07-16T10:47:56;3.65;;;1.95;;
64188;SDS011;50493;50.970;10.082;2023-07-16T10:50:22;3.90;;;1.83;;
64188;SDS011;50493;50.970;10.082;2023-07-16T10:52:51;4.20;;;2.05;;
64188;SDS011;50493;50.970;10.082;2023-07-16T10:55:17;5.53;;;2.28;;
64188;SDS011;50493;50.970;10.082;2023-07-16T10:57:43;3.38;;;2.00;;
64188;SDS011;50493;50.970;10.082;2023-07-16T12:05:00;4.10;;;2.42;;
64188;SDS011;50493;50.970;10.082;2023-07-16T12:07:32;3.45;;;2.10;;
64188;SDS011;50493;50.970;10.082;2023-07-16T12:09:59;5.25;;;2.10;;
64188;SDS011;50493;50.970;10.082;2023-07-16T12:12:24;4.88;;;2.20;;
64188;SDS011;50493;50.970;10.082;2023-07-16T12:14:49;4.18;;;2.15;;
64188;SDS011;50493;50.970;10.082;2023-07-16T12:17:15;4.68;;;2.47;;
64188;SDS011;50493;50.970;10.082;2023-07-16T12:19:40;4.32;;;2.50;;
64188;SDS011;50493;50.970;10.082;2023-07-16T12:22:07;7.43;;;2.40;;
64188;SDS011;50493;50.970;10.082;2023-07-16T12:24:33;4.88;;;2.50;;
64188;SDS011;50493;50.970;10.082;2023-07-16T12:26:58;6.03;;;2.38;;
64188;SDS011;50493;50.970;10.082;2023-07-16T12:29:24;4.70;;;2.10;;
64188;SDS011;50493;50.970;10.082;2023-07-16T12:31:49;7.63;;;2.28;;
64188;SDS011;50493;50.970;10.082;2023-07-16T12:34:15;4.22;;;2.08;;
64188;SDS011;50493;50.970;10.082;2023-07-16T12:36:40;3.53;;;2.17;;
64188;SDS011;50493;50.970;10.082;2023-07-16T12:39:07;6.05;;;2.10;;
64188;SDS011;50493;50.970;10.082;2023-07-16T12:41:32;4.00;;;2.30;;
64188;SDS011;50493;50.970;10.082;2023-07-16T12:43:58;3.60;;;2.30;;
64188;SDS011;50493;50.970;10.082;2023-07-16T12:46:23;3.72;;;2.00;;
64188;SDS011;50493;50.970;10.082;2023-07-16T12:48:48;5.22;;;2.15;;
64188;SDS011;50493;50.970;10.082;2023-07-16T12:51:14;4.82;;;2.40;;
64188;SDS011;50493;50.970;10.082;2023-07-16T12:53:39;3.90;;;2.40;;
64188;SDS011;50493;50.970;10.082;2023-07-16T12:56:06;4.70;;;2.28;;
64188;SDS011;50493;50.970;10.082;2023-07-16T12:58:31;4.13;;;2.25;;
64188;SDS011;50493;50.970;10.082;2023-07-16T13:00:57;4.00;;;2.28;;
64188;SDS011;50493;50.970;10.082;2023-07-16T13:03:22;5.07;;;2.50;;
64188;SDS011;50493;50.970;10.082;2023-07-16T13:05:48;5.10;;;2.45;;
64188;SDS011;50493;50.970;10.082;2023-07-16T13:08:13;3.47;;;2.03;;
64188;SDS011;50493;50.970;10.082;2023-07-16T13:10:38;4.47;;;2.10;;
64188;SDS011;50493;50.970;10.082;2023-07-16T13:13:06;4.13;;;2.17;;
64188;SDS011;50493;50.970;10.082;2023-07-16T13:15:33;6.22;;;2.50;;
64188;SDS011;50493;50.970;10.082;2023-07-16T13:17:58;4.13;;;2.50;;
64188;SDS011;50493;50.970;10.082;2023-07-16T13:20:23;3.55;;;2.13;;
64188;SDS011;50493;50.970;10.082;2023-07-16T13:22:49;4.35;;;2.55;;
64188;SDS011;50493;50.970;10.082;2023-07-16T13:25:14;3.75;;;2.17;;
64188;SDS011;50493;50.970;10.082;2023-07-16T13:27:40;3.25;;;2.47;;
64188;SDS011;50493;50.970;10.082;2023-07-16T13:30:07;5.07;;;2.30;;
64188;SDS011;50493;50.970;10.082;2023-07-16T13:32:33;5.10;;;2.50;;
64188;SDS011;50493;50.970;10.082;2023-07-16T13:34:58;3.35;;;2.45;;
64188;SDS011;50493;50.970;10.082;2023-07-16T13:37:24;4.45;;;2.30;;
64188;SDS011;50493;50.970;10.082;2023-07-16T13:39:49;5.32;;;2.55;;
64188;SDS011;50493;50.970;10.082;2023-07-16T13:42:14;4.65;;;2.40;;
64188;SDS011;50493;50.970;10.082;2023-07-16T13:44:40;3.97;;;2.25;;
64188;SDS011;50493;50.970;10.082;2023-07-16T13:47:07;3.47;;;2.40;;
64188;SDS011;50493;50.970;10.082;2023-07-16T13:49:32;5.35;;;2.60;;
64188;SDS011;50493;50.970;10.082;2023-07-16T13:51:57;6.40;;;2.75;;
64188;SDS011;50493;50.970;10.082;2023-07-16T13:54:23;4.65;;;2.60;;
64188;SDS011;50493;50.970;10.082;2023-07-16T13:56:48;4.30;;;2.53;;
64188;SDS011;50493;50.970;10.082;2023-07-16T13:59:14;5.22;;;2.53;;
64188;SDS011;50493;50.970;10.082;2023-07-16T14:01:39;4.38;;;2.45;;
64188;SDS011;50493;50.970;10.082;2023-07-16T14:04:06;4.93;;;2.50;;
64188;SDS011;50493;50.970;10.082;2023-07-16T14:06:32;5.57;;;2.28;;
64188;SDS011;50493;50.970;10.082;2023-07-16T14:08:57;4.55;;;2.50;;
64188;SDS011;50493;50.970;10.082;2023-07-16T14:11:23;5.20;;;2.40;;
64188;SDS011;50493;50.970;10.082;2023-07-16T14:13:49;4.03;;;2.58;;
64188;SDS011;50493;50.970;10.082;2023-07-16T14:16:18;4.28;;;2.58;;
64188;SDS011;50493;50.970;10.082;2023-07-16T14:18:43;5.45;;;2.65;;
64188;SDS011;50493;50.970;10.082;2023-07-16T14:21:10;4.07;;;2.67;;
64188;SDS011;50493;50.970;10.082;2023-07-16T14:23:35;3.72;;;2.47;;
64188;SDS011;50493;50.970;10.082;2023-07-16T14:26:01;3.40;;;2.42;;
64188;SDS011;50493;50.970;10.082;2023-07-16T14:28:27;3.88;;;2.38;;
64188;SDS011;50493;50.970;10.082;2023-07-16T14:30:53;5.30;;;2.67;;
64188;SDS011;50493;50.970;10.082;2023-07-16T14:33:18;4.68;;;2.80;;
64188;SDS011;50493;50.970;10.082;2023-07-16T14:35:44;7.15;;;3.10;;
64188;SDS011;50493;50.970;10.082;2023-07-16T14:38:10;3.40;;;2.45;;
64188;SDS011;50493;50.970;10.082;2023-07-16T14:40:36;3.72;;;2.45;;
64188;SDS011;50493;50.970;10.082;2023-07-16T14:43:03;4.28;;;2.67;;
64188;SDS011;50493;50.970;10.082;2023-07-16T14:45:29;4.88;;;2.60;;
64188;SDS011;50493;50.970;10.082;2023-07-16T14:47:55;3.83;;;2.30;;
64188;SDS011;50493;50.970;10.082;2023-07-16T14:50:20;3.75;;;2.50;;
64188;SDS011;50493;50.970;10.082;2023-07-16T14:52:45;4.35;;;2.40;;
64188;SDS011;50493;50.970;10.082;2023-07-16T14:55:12;7.57;;;3.15;;
64188;SDS011;50493;50.970;10.082;2023-07-16T14:57:37;4.88;;;2.65;;
64188;SDS011;50493;50.970;10.082;2023-07-16T15:00:03;7.68;;;3.08;;
64188;SDS011;50493;50.970;10.082;2023-07-16T15:02:30;7.40;;;2.88;;
64188;SDS011;50493;50.970;10.082;2023-07-16T15:04:55;4.50;;;2.67;;
64188;SDS011;50493;50.970;10.082;2023-07-16T15:07:20;6.70;;;2.88;;
64188;SDS011;50493;50.970;10.082;2023-07-16T15:09:46;4.57;;;2.47;;
64188;SDS011;50493;50.970;10.082;2023-07-16T15:12:12;6.65;;;2.80;;
64188;SDS011;50493;50.970;10.082;2023-07-16T15:14:38;5.22;;;2.60;;
64188;SDS011;50493;50.970;10.082;2023-07-16T15:17:04;4.20;;;2.65;;
64188;SDS011;50493;50.970;10.082;2023-07-16T15:19:29;5.72;;;2.70;;
64188;SDS011;50493;50.970;10.082;2023-07-16T15:21:55;4.68;;;2.75;;
64188;SDS011;50493;50.970;10.082;2023-07-16T15:24:20;4.13;;;2.50;;
64188;SDS011;50493;50.970;10.082;2023-07-16T15:26:45;8.02;;;2.95;;
64188;SDS011;50493;50.970;10.082;2023-07-16T15:29:12;5.28;;;2.70;;
64188;SDS011;50493;50.970;10.082;2023-07-16T15:31:37;4.80;;;3.00;;
64188;SDS011;50493;50.970;10.082;2023-07-16T15:34:03;5.72;;;2.83;;
64188;SDS011;50493;50.970;10.082;2023-07-16T15:36:28;5.30;;;2.90;;
64188;SDS011;50493;50.970;10.082;2023-07-16T15:38:54;4.53;;;2.67;;
64188;SDS011;50493;50.970;10.082;2023-07-16T15:41:20;4.28;;;2.60;;
64188;SDS011;50493;50.970;10.082;2023-07-16T15:43:48;4.43;;;2.88;;
64188;SDS011;50493;50.970;10.082;2023-07-16T15:46:16;5.28;;;3.03;;